Terminal Aerodrome Forecast
Issued by NWS Twin Cities, MN

Home | Current Version | Previous Version | Text Only | Print | Product List | Glossary On
Versions: 1 2 3 4 5 6 7 8 9 10 11 12 13 14 15 16 17
000
FTUS43 KMPX 022342
TAFSTC
TAF
KSTC 022342Z 0300/0324 18012KT P6SM FEW070 BKN100
     FM030700 16012KT 3SM -SN BR OVC025
     FM030900 15008KT 1 1/2SM -SN OVC007
     FM031200 18008KT 1/2SM SN VV005
     FM031700 25013G18KT 3/4SM -SN OVC005
     FM032000 31021G30KT 2SM BLSN FEW007 BKN020=

USA.gov is the U.S. government's official web portal to all federal, state and local government web resources and services.